createdAt,value
2023-01-17T00:01:13.791Z,23.00
2023-01-17T00:03:59.580Z,21.70
2023-01-17T00:06:45.324Z,25.80
2023-01-17T00:09:31.386Z,24.00
2023-01-17T00:11:58.736Z,21.80
2023-01-17T00:14:25.759Z,24.40
2023-01-17T00:16:52.736Z,23.10
2023-01-17T00:19:38.467Z,24.00
2023-01-17T00:22:30.757Z,21.00
2023-01-17T00:25:16.479Z,24.90
2023-01-17T00:27:43.195Z,21.40
2023-01-17T00:30:10.819Z,23.00
2023-01-17T00:32:37.542Z,27.80
2023-01-17T00:35:04.963Z,21.50
2023-01-17T00:37:31.614Z,23.20
2023-01-17T00:39:58.362Z,25.10
2023-01-17T00:42:25.064Z,25.80
2023-01-17T00:45:10.724Z,19.80
2023-01-17T00:47:57.030Z,22.20
2023-01-17T00:50:42.647Z,23.60
2023-01-17T00:53:28.362Z,24.00
2023-01-17T00:56:14.076Z,21.30
2023-01-17T00:58:59.699Z,27.00
2023-01-17T01:01:45.484Z,27.90
2023-01-17T01:04:31.084Z,23.80
2023-01-17T01:07:16.604Z,26.30
2023-01-17T01:10:02.409Z,20.70
2023-01-17T01:12:47.958Z,27.40
2023-01-17T01:15:33.510Z,27.80
2023-01-17T01:18:28.326Z,24.90
2023-01-17T01:23:59.504Z,25.40
2023-01-17T01:26:45.234Z,30.50
2023-01-17T01:29:30.733Z,21.40
2023-01-17T01:32:16.133Z,25.70
2023-01-17T01:34:42.903Z,23.20
2023-01-17T01:37:09.657Z,24.80
2023-01-17T01:39:36.396Z,23.00
2023-01-17T01:42:03.241Z,25.30
2023-01-17T01:44:59.522Z,34.40
2023-01-17T01:47:29.328Z,137.60
2023-01-17T01:49:56.040Z,68.50
2023-01-17T01:52:23.713Z,27.20
2023-01-17T01:54:53.772Z,29.30
2023-01-17T01:57:22.986Z,31.30
2023-01-17T01:59:54.198Z,27.20
2023-01-17T02:03:36.304Z,23.20
2023-01-17T02:06:14.636Z,30.30
2023-01-17T02:08:41.360Z,27.80
2023-01-17T02:11:08.052Z,29.50
2023-01-17T02:13:34.734Z,27.30
2023-01-17T02:16:07.740Z,29.70
2023-01-17T02:18:57.582Z,26.90
2023-01-17T02:21:48.635Z,27.10
2023-01-17T02:24:54.499Z,27.30
2023-01-17T02:27:25.697Z,32.80
2023-01-17T02:30:35.441Z,26.90
2023-01-17T02:33:20.037Z,37.50
2023-01-17T02:38:51.512Z,72.90
2023-01-17T02:41:21.487Z,74.80
2023-01-17T02:43:49.711Z,77.50
2023-01-17T02:46:16.606Z,74.50
2023-01-17T02:48:43.289Z,74.20
2023-01-17T02:51:19.180Z,74.40
2023-01-17T02:54:04.374Z,72.50
2023-01-17T02:56:45.772Z,33.30
2023-01-17T02:59:38.628Z,34.70
2023-01-17T03:02:18.209Z,146.30
2023-01-17T03:05:12.655Z,75.20
2023-01-17T03:10:07.368Z,77.60
2023-01-17T03:12:35.521Z,179.30
2023-01-17T03:15:05.359Z,191.50
2023-01-17T03:18:05.159Z,26.50
2023-01-17T03:20:33.465Z,34.70
2023-01-17T03:23:00.257Z,31.70
2023-01-17T03:25:27.429Z,48.90
2023-01-17T03:27:54.408Z,106.40
2023-01-17T03:30:23.204Z,110.00
2023-01-17T03:32:50.262Z,43.70
2023-01-17T03:35:16.937Z,35.10
2023-01-17T03:37:43.685Z,29.60
2023-01-17T03:40:11.100Z,38.70
2023-01-17T03:42:37.977Z,27.20
2023-01-17T03:45:05.458Z,48.90
2023-01-17T03:47:32.151Z,37.30
2023-01-17T03:49:58.853Z,65.10
2023-01-17T03:52:25.593Z,74.00
2023-01-17T03:54:52.305Z,73.20
2023-01-17T03:57:18.995Z,74.20
2023-01-17T03:59:47.208Z,72.20
2023-01-17T04:02:14.051Z,73.50
2023-01-17T04:04:41.313Z,73.70
2023-01-17T04:07:08.018Z,73.80
2023-01-17T04:09:35.566Z,75.10
2023-01-17T04:12:02.699Z,51.20
2023-01-17T04:14:29.454Z,40.70
2023-01-17T07:23:52.363Z,45.30
2023-01-17T07:26:19.392Z,47.30
2023-01-17T07:28:46.122Z,51.80
2023-01-17T07:31:13.062Z,52.30
2023-01-17T07:33:39.875Z,51.00
2023-01-17T07:36:07.514Z,55.80
2023-01-17T07:38:34.909Z,55.40
2023-01-17T07:41:01.891Z,58.90
2023-01-17T07:43:28.751Z,54.80
2023-01-17T07:45:55.906Z,56.40
2023-01-17T07:48:24.110Z,45.30
2023-01-17T07:50:52.619Z,50.30
2023-01-17T07:53:19.517Z,47.00
2023-01-17T07:55:47.889Z,41.00
2023-01-17T07:58:15.122Z,51.00
2023-01-17T08:00:44.952Z,47.20
2023-01-17T08:03:13.898Z,43.40
2023-01-17T08:05:44.568Z,42.90
2023-01-17T08:08:11.330Z,53.20
2023-01-17T08:10:40.177Z,44.90
2023-01-17T08:13:07.106Z,52.00
2023-01-17T08:15:36.953Z,48.20
2023-01-17T08:18:03.685Z,50.50
2023-01-17T08:20:30.491Z,48.10
2023-01-17T08:22:57.402Z,48.60
2023-01-17T08:25:24.744Z,54.20
2023-01-17T08:28:06.236Z,58.50
2023-01-17T08:30:32.972Z,50.10
2023-01-17T08:33:02.334Z,53.40
2023-01-17T08:35:29.155Z,46.80
2023-01-17T08:37:56.681Z,53.30
2023-01-17T08:40:24.279Z,50.40
2023-01-17T08:42:58.229Z,51.50
2023-01-17T08:45:28.417Z,50.90
2023-01-17T08:47:55.315Z,54.90
2023-01-17T08:50:22.250Z,53.70
2023-01-17T08:52:50.027Z,48.60
2023-01-17T08:55:17.328Z,51.20
2023-01-17T08:57:45.252Z,49.50
2023-01-17T09:00:15.597Z,50.00
2023-01-17T09:02:42.372Z,59.20
2023-01-17T09:05:09.545Z,58.80
2023-01-17T09:07:36.370Z,46.40
2023-01-17T09:10:03.293Z,54.90
2023-01-17T09:12:32.832Z,59.50
2023-01-17T09:14:59.795Z,58.90
2023-01-17T09:17:26.524Z,54.40
2023-01-17T09:19:53.255Z,56.80
2023-01-17T09:22:19.985Z,54.60
2023-01-17T09:24:48.178Z,52.80
2023-01-17T09:27:15.092Z,57.20
2023-01-17T09:29:43.737Z,59.40
2023-01-17T09:32:10.477Z,50.50
2023-01-17T09:34:52.134Z,55.00
2023-01-17T09:37:20.593Z,56.50
2023-01-17T09:39:47.416Z,57.10
2023-01-17T09:42:34.334Z,58.10
2023-01-17T09:45:01.113Z,49.60
2023-01-17T09:47:43.974Z,55.60
2023-01-17T09:50:31.862Z,55.90
2023-01-17T09:53:01.415Z,55.10
2023-01-17T09:55:37.195Z,66.70
2023-01-17T09:58:12.708Z,50.60
2023-01-17T10:00:54.690Z,57.00
2023-01-17T10:03:33.864Z,55.00
2023-01-17T10:06:24.880Z,55.80
2023-01-17T10:09:08.068Z,53.20
2023-01-17T10:11:46.899Z,60.00
2023-01-17T10:14:19.694Z,57.40
2023-01-17T10:16:58.271Z,58.70
2023-01-17T10:19:49.156Z,62.80
2023-01-17T10:22:39.144Z,55.80
2023-01-17T10:25:16.034Z,56.00
2023-01-17T10:27:48.704Z,60.90
2023-01-17T10:30:24.474Z,54.50
2023-01-17T10:32:51.330Z,57.20
2023-01-17T10:35:22.558Z,65.70
2023-01-17T10:37:49.453Z,63.40
2023-01-17T10:40:19.849Z,56.60
2023-01-17T10:42:52.329Z,58.00
2023-01-17T10:45:36.615Z,67.90
2023-01-17T10:48:23.154Z,61.10
2023-01-17T10:51:06.096Z,57.00
2023-01-17T10:54:04.172Z,62.50
2023-01-17T10:56:31.084Z,56.50
2023-01-17T10:59:20.683Z,63.70
2023-01-17T11:01:49.189Z,63.90
2023-01-17T11:04:45.067Z,57.90
2023-01-17T11:07:17.250Z,56.40
2023-01-17T11:09:49.698Z,55.50
2023-01-17T11:12:40.344Z,58.50
2023-01-17T11:15:10.207Z,67.10
2023-01-17T11:17:38.112Z,57.10
2023-01-17T11:20:09.540Z,61.60
2023-01-17T11:22:36.230Z,61.00
2023-01-17T11:25:02.936Z,66.00
2023-01-17T11:27:34.474Z,59.90
2023-01-17T11:30:16.458Z,62.10
2023-01-17T11:33:04.003Z,61.40
2023-01-17T11:35:31.684Z,51.00
2023-01-17T11:38:10.692Z,62.80
2023-01-17T11:40:41.914Z,68.80
2023-01-17T11:43:11.967Z,59.10
2023-01-17T11:45:39.704Z,62.50
2023-01-17T11:48:15.568Z,65.40
2023-01-17T11:50:57.331Z,60.80
2023-01-17T11:53:28.689Z,52.20
2023-01-17T11:56:06.518Z,68.40
2023-01-17T11:58:34.899Z,58.40
2023-01-17T12:01:37.588Z,61.60
2023-01-17T12:04:10.481Z,63.70
2023-01-17T12:06:58.066Z,59.90
2023-01-17T12:09:35.189Z,55.20
2023-01-17T12:12:50.269Z,56.00
2023-01-17T12:15:30.220Z,54.70
2023-01-17T12:17:57.077Z,65.60
2023-01-17T12:20:24.627Z,58.30
2023-01-17T12:23:04.568Z,53.70
2023-01-17T12:25:49.111Z,62.60
2023-01-17T12:30:58.985Z,68.00
2023-01-17T12:33:30.851Z,63.40
2023-01-17T12:36:36.230Z,65.70
2023-01-17T12:39:05.454Z,60.40
2023-01-17T12:41:35.728Z,60.90
2023-01-17T12:44:04.682Z,60.90
2023-01-17T12:46:55.686Z,56.90
2023-01-17T12:49:43.647Z,56.90
2023-01-17T12:52:48.699Z,48.80
2023-01-17T12:55:22.389Z,63.90
2023-01-17T12:57:56.407Z,53.00
2023-01-17T13:00:25.566Z,52.80
2023-01-17T13:02:58.524Z,57.10
2023-01-17T13:12:15.784Z,58.10
2023-01-17T13:14:45.654Z,58.20
2023-01-17T13:17:51.434Z,64.90
2023-01-17T13:20:33.142Z,58.40
2023-01-17T13:23:29.638Z,57.80
2023-01-17T13:25:57.696Z,52.20
2023-01-17T13:29:01.735Z,67.90
2023-01-17T13:31:44.886Z,59.70
2023-01-17T13:34:24.802Z,54.10
2023-01-17T13:37:16.068Z,50.40
2023-01-17T13:40:21.324Z,53.80
2023-01-17T13:42:54.329Z,79.90
2023-01-17T13:45:22.965Z,59.10
2023-01-17T13:47:49.565Z,57.30
2023-01-17T13:50:35.539Z,64.60
2023-01-17T13:53:33.205Z,69.70
2023-01-17T13:56:18.255Z,75.60
2023-01-17T13:58:49.646Z,61.90
2023-01-17T14:01:21.395Z,68.40
2023-01-17T14:03:51.100Z,68.10
2023-01-17T14:06:33.406Z,88.60
2023-01-17T14:09:12.393Z,69.80
2023-01-17T14:11:58.693Z,49.40
2023-01-17T14:14:43.558Z,81.80
2023-01-17T14:17:16.243Z,82.90
2023-01-17T14:19:51.956Z,68.20
2023-01-17T14:22:18.649Z,87.80
2023-01-17T14:25:19.345Z,83.00
2023-01-17T14:28:02.893Z,85.90
2023-01-17T14:30:35.709Z,91.50
2023-01-17T14:33:05.285Z,76.80
2023-01-17T14:35:40.720Z,75.90
2023-01-17T14:38:15.559Z,74.00
2023-01-17T14:40:54.200Z,93.50
2023-01-17T14:43:23.180Z,81.20
2023-01-17T14:46:00.265Z,72.90
2023-01-17T14:48:30.491Z,75.60
2023-01-17T14:50:59.499Z,68.70
2023-01-17T14:53:28.319Z,72.30
2023-01-17T14:56:11.302Z,79.10
2023-01-17T14:58:38.686Z,84.10
2023-01-17T15:01:16.917Z,76.40
2023-01-17T15:03:52.778Z,78.30
2023-01-17T15:06:28.605Z,69.20
2023-01-17T15:08:55.648Z,63.40
2023-01-17T15:11:27.177Z,76.90
2023-01-17T15:13:56.733Z,64.90
2023-01-17T15:16:24.338Z,77.30
2023-01-17T15:18:53.517Z,71.30
2023-01-17T15:21:26.445Z,66.80
2023-01-17T15:26:38.597Z,60.20
2023-01-17T15:29:24.956Z,83.60
2023-01-17T15:31:57.521Z,70.10
2023-01-17T15:34:24.088Z,62.90
2023-01-17T15:36:51.216Z,66.50
2023-01-17T15:39:21.972Z,68.20
2023-01-17T15:41:52.975Z,75.80
2023-01-17T15:44:39.091Z,68.80
2023-01-17T15:47:26.160Z,60.40
2023-01-17T15:49:52.802Z,75.60
2023-01-17T15:52:20.890Z,73.60
2023-01-17T15:54:54.914Z,74.40
2023-01-17T15:57:37.547Z,73.50
2023-01-17T16:00:18.047Z,69.00
2023-01-17T16:02:57.104Z,74.90
2023-01-17T16:05:24.345Z,71.30
2023-01-17T16:07:55.242Z,80.10
2023-01-17T16:10:23.977Z,69.80
2023-01-17T16:12:52.932Z,71.70
2023-01-17T16:15:19.780Z,65.60
2023-01-17T16:17:47.898Z,62.20
2023-01-17T16:20:22.773Z,71.20
2023-01-17T16:22:49.646Z,70.90
2023-01-17T16:25:18.056Z,81.30
2023-01-17T16:27:45.404Z,64.60
2023-01-17T16:30:16.952Z,74.60
2023-01-17T16:32:48.587Z,71.50
2023-01-17T16:35:20.234Z,74.10
2023-01-17T16:37:51.323Z,65.00
2023-01-17T16:40:19.284Z,71.60
2023-01-17T16:42:46.667Z,69.50
2023-01-17T16:45:13.805Z,74.30
2023-01-17T16:47:41.802Z,76.30
2023-01-17T16:50:10.567Z,74.20
2023-01-17T16:52:37.451Z,78.00
2023-01-17T16:55:09.927Z,71.60
2023-01-17T16:58:05.736Z,69.40
2023-01-17T17:00:34.889Z,67.80
2023-01-17T17:03:01.653Z,72.10
2023-01-17T17:05:28.941Z,74.90
2023-01-17T17:07:56.470Z,69.00
2023-01-17T17:10:27.832Z,70.60
2023-01-17T17:12:56.529Z,76.30
2023-01-17T17:15:23.390Z,71.90
2023-01-17T17:17:51.322Z,68.60
2023-01-17T17:20:18.328Z,73.80
2023-01-17T17:22:56.446Z,70.40
2023-01-17T17:25:23.176Z,63.70
2023-01-17T17:27:54.450Z,74.30
2023-01-17T17:30:21.470Z,80.00
2023-01-17T17:32:48.296Z,73.40
2023-01-17T17:35:15.317Z,72.80
2023-01-17T17:37:43.862Z,73.50
2023-01-17T17:40:13.961Z,82.70
2023-01-17T17:42:43.001Z,73.40
2023-01-17T17:45:10.632Z,78.90
2023-01-17T17:47:44.062Z,70.60
2023-01-17T17:50:19.905Z,57.00
2023-01-17T17:52:49.528Z,67.20
2023-01-17T17:55:19.059Z,63.50
2023-01-17T17:57:50.105Z,68.80
2023-01-17T18:00:17.941Z,71.50
2023-01-17T18:02:45.866Z,63.30
2023-01-17T18:05:12.739Z,64.20
2023-01-17T18:07:40.352Z,77.10
2023-01-17T18:10:08.664Z,70.90
2023-01-17T18:12:35.443Z,70.80
2023-01-17T18:15:05.922Z,58.90
2023-01-17T18:17:32.777Z,81.00
2023-01-17T18:20:02.400Z,74.80
2023-01-17T18:22:29.113Z,67.50
2023-01-17T18:24:55.972Z,72.40
2023-01-17T18:27:25.642Z,63.60
2023-01-17T18:29:54.002Z,61.50
2023-01-17T18:32:24.195Z,67.30
2023-01-17T18:34:51.674Z,67.80
2023-01-17T18:37:19.911Z,68.70
2023-01-17T18:39:48.432Z,64.10
2023-01-17T18:42:18.145Z,68.50
2023-01-17T18:44:45.067Z,67.80
2023-01-17T18:47:13.047Z,83.20
2023-01-17T18:49:43.003Z,68.60
2023-01-17T18:52:17.750Z,75.30
2023-01-17T18:54:44.552Z,67.80
2023-01-17T18:57:13.395Z,67.70
2023-01-17T18:59:40.276Z,64.50
2023-01-17T19:02:08.776Z,75.30
2023-01-17T19:04:45.161Z,123.80
2023-01-17T19:07:12.733Z,107.60
2023-01-17T19:09:40.061Z,94.70
2023-01-17T19:12:08.099Z,100.90
2023-01-17T19:14:34.890Z,84.90
2023-01-17T19:17:06.033Z,92.90
2023-01-17T19:19:32.776Z,96.10
2023-01-17T19:21:59.563Z,94.30
2023-01-17T19:24:26.704Z,90.10
2023-01-17T19:26:54.148Z,94.40
2023-01-17T19:29:21.071Z,93.80
2023-01-17T19:31:47.802Z,96.40
2023-01-17T19:34:14.815Z,88.60
2023-01-17T19:36:47.850Z,94.10
2023-01-17T19:39:14.659Z,90.90
2023-01-17T19:41:43.815Z,84.20
2023-01-17T19:44:11.848Z,69.10
2023-01-17T19:49:15.310Z,70.10
2023-01-17T19:51:42.532Z,64.20
2023-01-17T19:54:09.380Z,65.50
2023-01-17T19:56:36.861Z,68.10
2023-01-17T19:59:07.264Z,69.60
2023-01-17T20:01:34.756Z,64.40
2023-01-17T20:04:02.671Z,65.10
2023-01-17T20:06:31.455Z,69.20
2023-01-17T20:09:01.177Z,61.70
2023-01-17T20:11:28.463Z,84.50
2023-01-17T20:13:56.815Z,60.20
2023-01-17T20:16:24.415Z,70.00
2023-01-17T20:18:51.450Z,61.70
2023-01-17T20:21:22.310Z,59.10
2023-01-17T20:23:50.152Z,62.90
2023-01-17T20:26:18.836Z,69.10
2023-01-17T20:28:46.572Z,63.80
2023-01-17T20:31:23.670Z,69.30
2023-01-17T20:33:51.029Z,63.30
2023-01-17T20:36:18.703Z,63.90
2023-01-17T20:38:45.550Z,64.40
2023-01-17T20:41:19.991Z,73.70
2023-01-17T20:43:48.682Z,63.00
2023-01-17T20:46:18.467Z,57.70
2023-01-17T20:48:55.820Z,60.20
2023-01-17T20:51:27.124Z,65.70
2023-01-17T20:54:00.670Z,76.50
2023-01-17T20:56:30.453Z,62.00
2023-01-17T20:58:58.044Z,66.40
2023-01-17T21:01:25.082Z,66.80
2023-01-17T21:03:53.924Z,57.90
2023-01-17T21:06:24.428Z,67.80
2023-01-17T21:08:53.671Z,60.70
2023-01-17T21:11:22.160Z,61.40
2023-01-17T21:13:48.998Z,66.40
2023-01-17T21:16:16.999Z,71.30
2023-01-17T21:18:46.821Z,69.00
2023-01-17T21:21:17.375Z,68.50
2023-01-17T21:23:49.389Z,67.00
2023-01-17T21:26:16.745Z,77.40
2023-01-17T21:28:45.194Z,70.40
2023-01-17T21:31:25.279Z,60.30
2023-01-17T21:33:58.703Z,55.80
2023-01-17T21:36:27.447Z,54.90
2023-01-17T21:38:57.122Z,55.60
2023-01-17T21:41:26.981Z,57.50
2023-01-17T21:43:57.123Z,61.20
2023-01-17T21:46:24.064Z,54.40
2023-01-17T21:48:53.576Z,58.20
2023-01-17T21:51:24.356Z,66.70
2023-01-17T21:53:51.232Z,59.10
2023-01-17T21:56:36.845Z,70.80
2023-01-17T21:59:03.646Z,66.40
